Fedor Khrenov

Scout - Lokomotiv Moscow
23 Apr 2028
Sonntag
Verarbeitung

Persönlichkeit

Anpassungsfähigkeit (17) Ehrgeiz (4) Kontroverse (2) Loyalität (19) Druck (19) Professionalität (13) Fairness (1) Temperament (9)

Profil

Trainerstil Demokratisch
Lizenz Kontinentale C
Entschlossenheit 9
Menschenführung 9
Motivation 5
Disziplin 6
Arbeitszufriedenheit
100%
Ermüdung
0%
Rolle Scout
Gehalt 86.2K p/W
Vertrag 14.03.2029

Leistung

Verhalten Gut
Trainingseffektivität
50%
Spielerentwicklung
60%
Verletzungsprävention
50%
Taktische Umsetzung
30%

Letzte Ereignisse

Nahm an einer Scouting-Besprechung teil jetzt
Empfahl ein Transferziel jetzt
Empfahl ein Transferziel jetzt
Empfahl ein Transferziel jetzt
Empfahl ein Transferziel jetzt
Empfahl ein Transferziel jetzt
Spieler begutachtet jetzt
Spieler begutachtet jetzt

Aktuell beobachtet

76
Spieler Verein Status Fähigkeit Vertrauen Beobachtet Zuletzt beobachtet Letzte Stimme
Arijanet Murić Sassuolo Aktiv 147 / 145 40% 8 22.04.2028 -
Michael Cooper Sheffield United Aktiv 139 / 146 40% 3 22.04.2028 -
Vladan Kovačević Norwich City Aktiv 125 / 120 40% 1 22.04.2028 -
Evgeny Latyshonok Nizhniy Novgorod Aktiv 134 / 127 40% 8 21.04.2028 -
Alex Meret Napoli Aktiv 150 / 168 40% 10 21.04.2028 -
Aaron Ramsdale Southampton Aktiv 148 / 147 40% 4 21.04.2028 -
Jacob Widell Zetterström Derby County Aktiv 130 / 131 40% 10 19.04.2028 -
Sol Brynn Bradford City Aktiv 130 / 133 40% 2 19.04.2028 -
Vanja Milinković-Savić Atalanta Aktiv 150 / 146 40% 8 18.04.2028 -
Marek Rodák Al-Ettifaq Aktiv 126 / 121 40% 5 18.04.2028 -
Elia Caprile Cagliari Aktiv 159 / 163 40% 2 18.04.2028 -
Fran Vieites Walsall Aktiv 127 / 131 40% 4 17.04.2028 -
Lukáš Horníček Burnley Aktiv 156 / 154 40% 5 17.04.2028 -
Robin Roefs Sunderland Aktiv 152 / 154 40% 4 17.04.2028 -
Christos Mandas Lazio Aktiv 153 / 135 40% 8 14.04.2028 -
Gaëtan Coucke Sampdoria Aktiv 135 / 131 40% 4 14.04.2028 -
Carl Rushworth Aston Villa Aktiv 163 / 163 40% 6 14.04.2028 -
Denis Adamov Zenit Aktiv 127 / 130 40% 8 13.04.2028 -
James Trafford Leeds United Aktiv 156 / 146 40% 7 13.04.2028 -
Lukas Jensen Millwall Aktiv 116 / 136 40% 4 13.04.2028 -
Anthony Patterson Wrexham Aktiv 139 / 137 40% 4 10.04.2028 -
Maxim Borisko CSKA Moscow Aktiv 129 / 126 40% 11 05.04.2028 -
Balázs Tóth Blackburn Rovers Aktiv 143 / 143 40% 3 05.04.2028 -
Mile Svilar AS Roma Aktiv 167 / 164 40% 9 31.03.2028 -
Oliver Dovin Coventry City Aktiv 146 / 155 40% 2 28.03.2028 -
Mads Hermansen West Ham United Aktiv 155 / 148 40% 2 27.03.2028 -
Radek Vítek Middlesbrough Aktiv 139 / 141 40% 2 26.03.2028 -
Josh Keeley Luton Town Aktiv 140 / 148 40% 3 23.03.2028 -
Sam Tickle Modena Aktiv 146 / 152 40% 3 22.03.2028 -
Murphy Cooper Plymouth Argyle Aktiv 133 / 111 40% 2 22.03.2028 -
Dean Henderson Crystal Palace Aktiv 150 / 156 40% 3 15.03.2028 -
Caoimhin Kelleher Brentford Aktiv 153 / 168 40% 1 12.03.2028 -
Nathan Trott Cardiff City Aktiv 125 / 127 40% 1 04.03.2028 -
Gianluigi Donnarumma AS Roma Aktiv 161 / 172 40% 2 01.03.2028 -
George Wickens Lincoln City Aktiv 119 / 127 40% 1 01.03.2028 -
Maduka Okoye Udinese Aktiv 143 / 129 40% 4 29.02.2028 -
Adrian Šemper Al-Fateh Aktiv 129 / 148 40% 5 28.02.2028 -
Viktor Johansson Stoke City Aktiv 151 / 135 40% 3 26.02.2028 -
Riccardo Gagno Vicenza Aktiv 135 / 116 40% 2 23.02.2028 -
Elías Rafn Ólafsson FC Midtjylland Aktiv 144 / 136 40% 3 20.02.2028 -
Michele Cerofolini Empoli Aktiv 129 / 127 40% 4 18.02.2028 -
Manuel Roffo Hajduk Split Aktiv 140 / 132 40% 3 17.02.2028 -
Mathieu Ménard Tours Aktiv 132 / 139 40% 3 17.02.2028 -
Jonathan Klinsmann Cesena Aktiv 129 / 128 40% 2 15.02.2028 -
Maílson Al-Taawoun Aktiv 127 / 143 40% 3 14.02.2028 -
Semuel Pizzignacco Monza Aktiv 140 / 127 40% 2 07.02.2028 -
Nicolás Fernández Mercau Club America Aktiv 134 / 134 67% 1 25.01.2028 Befürworten
Bitello Universidad de Chile Aktiv 135 / 135 68% 1 25.01.2028 Befürworten
Patrick Berg Racing Genk Aktiv 141 / 141 62% 1 25.01.2028 Befürworten
Nikolay Titkov Baltika Aktiv 120 / 124 69% 1 12.07.2027 Befürworten
Luiz Henrique AS Roma Verloren 142 / 143 68% 1 14.06.2027 Befürworten
Stanislav Agkatsev Brentford Aktiv 133 / 134 66% 1 14.06.2027 Befürworten
João Félix Dinamo Moscow Aktiv 157 / 156 40% 1 13.06.2027 Mehr Infos nötig
Jota Silva Olympiacos Aktiv 131 / 138 40% 1 13.06.2027 -
Douglas Augusto Krasnodar Aktiv 132 / 122 40% 5 23.01.2027 -
Gustavo Mantuan Zenit Aktiv 143 / 129 40% 8 23.01.2027 -
Ferland Mendy Real Madrid Aktiv 141 / 129 40% 8 23.01.2027 -
Lucas Olaza CSKA Moscow Aktiv 135 / 124 40% 6 22.01.2027 -
Théo Hernández CSKA Moscow Aktiv 159 / 153 40% 4 20.01.2027 -
João Victor CSKA Moscow Aktiv 127 / 122 40% 4 20.01.2027 -
Wendel Zenit Aktiv 141 / 130 40% 7 12.01.2027 -
Tormena Krasnodar Aktiv 137 / 124 40% 4 05.01.2027 -
Kevin Pina Krasnodar Aktiv 127 / 135 40% 2 01.01.2027 -
Matvey Kislyak CSKA Moscow Aktiv 136 / 129 40% 5 29.12.2026 -
Ivan Oblyakov CSKA Moscow Aktiv 131 / 139 40% 4 26.12.2026 -
Diego Gómez Brighton Aktiv 143 / 136 40% 1 26.12.2026 -
Valentín Gómez Betis Aktiv 150 / 154 40% 2 08.12.2026 -
Rubens Dinamo Moscow Aktiv 121 / 125 40% 3 07.12.2026 -
Luis Chávez Dinamo Moscow Aktiv 129 / 134 40% 4 02.12.2026 -
Danil Glebov Dinamo Moscow Aktiv 132 / 120 40% 5 18.11.2026 -
Manu Morlanes Mallorca Aktiv 139 / 151 40% 1 10.11.2026 -
Alexandr Chernikov Krasnodar Aktiv 140 / 130 40% 2 05.11.2026 -
Metinho Basel Aktiv 131 / 127 40% 1 01.11.2026 -
Yves Bissouma Tottenham Aktiv 142 / 131 40% 4 28.10.2026 -
Edu Expósito Espanyol Aktiv 150 / 126 40% 2 21.10.2026 -
Carl Starfelt Celta Aktiv 138 / 135 40% 1 02.08.2026 -